createdAt,value
2023-05-24T00:00:42.306Z,0.00
2023-05-24T00:01:41.444Z,0.00
2023-05-24T00:02:43.349Z,0.00
2023-05-24T00:03:41.589Z,0.00
2023-05-24T00:04:41.511Z,0.00
2023-05-24T00:05:41.394Z,0.00
2023-05-24T00:06:41.429Z,0.00
2023-05-24T00:07:41.394Z,0.00
2023-05-24T00:08:41.366Z,0.00
2023-05-24T00:09:41.352Z,0.00
2023-05-24T00:10:41.582Z,0.00
2023-05-24T00:11:41.362Z,0.00
2023-05-24T00:12:41.349Z,0.00
2023-05-24T00:13:41.331Z,0.00
2023-05-24T00:14:41.312Z,0.00
2023-05-24T00:15:41.323Z,0.00
2023-05-24T00:16:41.325Z,0.00
2023-05-24T00:17:41.708Z,0.00
2023-05-24T00:18:41.288Z,0.00
2023-05-24T00:19:41.251Z,0.00
2023-05-24T00:20:41.640Z,0.00
2023-05-24T00:21:41.220Z,0.00
2023-05-24T00:22:41.234Z,0.00
2023-05-24T00:23:41.199Z,0.00
2023-05-24T00:24:41.211Z,0.00
2023-05-24T00:25:41.216Z,0.00
2023-05-24T00:26:41.185Z,0.00
2023-05-24T00:27:41.165Z,0.00
2023-05-24T00:28:43.330Z,0.00
2023-05-24T00:29:41.136Z,0.00
2023-05-24T00:30:41.372Z,0.00
2023-05-24T00:31:41.195Z,0.00
2023-05-24T00:32:41.168Z,0.00
2023-05-24T00:33:41.106Z,0.00
2023-05-24T00:34:41.148Z,0.00
2023-05-24T00:35:41.106Z,0.00
2023-05-24T00:36:41.085Z,0.00
2023-05-24T00:37:41.060Z,0.00
2023-05-24T00:38:41.057Z,0.00
2023-05-24T00:39:41.041Z,0.00
2023-05-24T00:40:41.250Z,0.00
2023-05-24T00:41:41.004Z,0.00
2023-05-24T00:42:41.018Z,0.00
2023-05-24T00:43:40.996Z,0.00
2023-05-24T00:44:40.994Z,0.00
2023-05-24T00:45:41.707Z,0.00
2023-05-24T00:46:41.076Z,0.00
2023-05-24T00:47:41.003Z,0.00
2023-05-24T00:48:40.937Z,0.00
2023-05-24T00:49:40.939Z,0.00
2023-05-24T00:50:41.230Z,0.00
2023-05-24T00:51:40.935Z,0.00
2023-05-24T00:52:40.906Z,0.00
2023-05-24T00:53:40.901Z,0.00
2023-05-24T00:54:40.889Z,0.00
2023-05-24T00:55:40.900Z,0.00
2023-05-24T00:56:40.850Z,0.00
2023-05-24T00:57:40.861Z,0.00
2023-05-24T00:58:40.852Z,0.00
2023-05-24T00:59:40.837Z,0.00
2023-05-24T01:00:41.055Z,0.00
2023-05-24T01:01:40.871Z,0.00
2023-05-24T01:02:41.002Z,0.00
2023-05-24T01:03:40.875Z,0.00
2023-05-24T01:04:40.790Z,0.00
2023-05-24T01:05:41.722Z,0.00
2023-05-24T01:06:40.776Z,0.00
2023-05-24T01:07:40.793Z,0.00
2023-05-24T01:08:40.752Z,0.00
2023-05-24T01:09:40.796Z,0.00
2023-05-24T01:10:40.977Z,0.00
2023-05-24T01:11:40.719Z,0.00
2023-05-24T01:12:40.697Z,0.00
2023-05-24T01:13:40.714Z,0.00
2023-05-24T01:14:40.677Z,0.00
2023-05-24T01:15:40.697Z,0.00
2023-05-24T01:16:40.723Z,0.00
2023-05-24T01:17:40.676Z,0.00
2023-05-24T01:18:40.647Z,0.00
2023-05-24T01:19:40.638Z,0.00
2023-05-24T01:20:40.937Z,0.00
2023-05-24T01:21:40.640Z,0.00
2023-05-24T01:22:40.605Z,0.00
2023-05-24T01:23:40.624Z,0.00
2023-05-24T01:24:40.569Z,0.00
2023-05-24T01:25:40.571Z,0.00
2023-05-24T01:26:40.538Z,0.00
2023-05-24T01:27:40.549Z,0.00
2023-05-24T01:28:40.555Z,0.00
2023-05-24T01:29:40.537Z,0.00
2023-05-24T01:30:40.685Z,0.00
2023-05-24T01:31:40.523Z,0.00
2023-05-24T01:32:40.523Z,0.00
2023-05-24T01:33:40.531Z,0.00
2023-05-24T01:34:40.462Z,0.00
2023-05-24T01:35:40.528Z,0.00
2023-05-24T01:36:40.442Z,0.00
2023-05-24T01:37:41.384Z,0.00
2023-05-24T01:38:40.445Z,0.00
2023-05-24T01:39:40.414Z,0.00
2023-05-24T01:40:42.096Z,0.00
2023-05-24T01:41:40.620Z,0.00
2023-05-24T01:42:40.394Z,0.00
2023-05-24T01:43:40.406Z,0.00
2023-05-24T01:44:40.388Z,0.00
2023-05-24T01:45:40.350Z,0.00
2023-05-24T01:46:40.880Z,0.00
2023-05-24T01:47:40.356Z,0.00
2023-05-24T01:48:40.317Z,0.00
2023-05-24T01:49:40.342Z,0.00
2023-05-24T01:50:45.703Z,0.00
2023-05-24T01:51:40.351Z,0.00
2023-05-24T01:52:40.275Z,0.00
2023-05-24T01:53:40.272Z,0.00
2023-05-24T01:54:40.356Z,0.00
2023-05-24T01:55:40.277Z,0.00
2023-05-24T01:56:40.224Z,0.00
2023-05-24T01:57:40.226Z,0.00
2023-05-24T01:58:40.206Z,0.00
2023-05-24T01:59:40.234Z,0.00
2023-05-24T02:00:40.272Z,0.00
2023-05-24T02:01:40.237Z,0.00
2023-05-24T02:02:40.312Z,0.00
2023-05-24T02:03:40.165Z,0.00
2023-05-24T02:04:40.164Z,0.00
2023-05-24T02:05:40.187Z,0.00
2023-05-24T02:06:40.117Z,0.00
2023-05-24T02:07:40.126Z,0.00
2023-05-24T02:08:40.124Z,0.00
2023-05-24T02:09:40.100Z,0.00
2023-05-24T02:10:40.154Z,0.00
2023-05-24T02:11:40.072Z,0.00
2023-05-24T02:12:40.060Z,0.00
2023-05-24T02:13:40.062Z,0.00
2023-05-24T02:14:40.067Z,0.00
2023-05-24T02:15:40.043Z,0.00
2023-05-24T02:16:40.073Z,0.00
2023-05-24T02:17:40.043Z,0.00
2023-05-24T02:18:40.005Z,0.00
2023-05-24T02:19:40.005Z,0.00
2023-05-24T02:20:40.077Z,0.00
2023-05-24T02:21:40.016Z,0.00
2023-05-24T02:22:39.954Z,0.00
2023-05-24T02:23:39.968Z,0.00
2023-05-24T02:24:39.882Z,0.00
2023-05-24T02:25:39.939Z,0.00
2023-05-24T02:26:39.945Z,0.00
2023-05-24T02:27:39.882Z,0.00
2023-05-24T02:28:39.843Z,0.00
2023-05-24T02:29:39.837Z,0.00
2023-05-24T02:30:40.154Z,0.00
2023-05-24T02:31:39.954Z,0.00
2023-05-24T02:32:39.877Z,0.00
2023-05-24T02:33:39.812Z,0.00
2023-05-24T02:34:39.784Z,0.00
2023-05-24T02:35:39.794Z,0.00
2023-05-24T02:36:39.773Z,0.00
2023-05-24T02:37:39.753Z,0.00
2023-05-24T02:38:39.742Z,0.00
2023-05-24T02:39:39.735Z,0.00
2023-05-24T02:40:39.776Z,0.00
2023-05-24T02:41:39.745Z,0.00
2023-05-24T02:42:39.696Z,0.00
2023-05-24T02:43:39.704Z,0.00
2023-05-24T02:44:39.685Z,0.00
2023-05-24T02:45:39.675Z,0.00
2023-05-24T02:46:39.839Z,0.00
2023-05-24T02:47:40.180Z,0.00
2023-05-24T02:48:39.638Z,0.00
2023-05-24T02:49:39.634Z,0.00
2023-05-24T02:50:39.605Z,0.00
2023-05-24T02:51:40.756Z,0.00
2023-05-24T02:52:40.115Z,0.00
2023-05-24T02:53:39.795Z,0.00
2023-05-24T02:54:39.570Z,0.00
2023-05-24T02:55:39.579Z,0.00
2023-05-24T02:56:40.439Z,0.00
2023-05-24T02:57:40.084Z,0.00
2023-05-24T02:58:39.521Z,0.00
2023-05-24T02:59:39.529Z,0.00
2023-05-24T03:00:39.530Z,0.00
2023-05-24T03:01:39.568Z,0.00
2023-05-24T03:02:39.958Z,0.00
2023-05-24T03:03:39.558Z,0.00
2023-05-24T03:04:39.452Z,0.00
2023-05-24T03:05:39.469Z,0.00
2023-05-24T03:06:39.465Z,0.00
2023-05-24T03:07:39.468Z,0.00
2023-05-24T03:08:39.418Z,0.00
2023-05-24T03:09:39.436Z,0.00
2023-05-24T03:10:39.389Z,0.00
2023-05-24T03:11:39.404Z,0.00
2023-05-24T03:12:39.402Z,0.00
2023-05-24T03:13:39.377Z,0.00
2023-05-24T03:14:39.378Z,0.00
2023-05-24T03:15:39.360Z,0.00
2023-05-24T03:16:39.355Z,0.00
2023-05-24T03:17:39.337Z,0.00
2023-05-24T03:18:39.393Z,0.00
2023-05-24T03:19:39.330Z,0.00
2023-05-24T03:20:39.380Z,0.00
2023-05-24T03:21:39.327Z,0.00
2023-05-24T03:22:39.295Z,0.00
2023-05-24T03:23:39.265Z,0.00
2023-05-24T03:24:39.280Z,0.00
2023-05-24T03:25:39.267Z,5.62
2023-05-24T03:26:39.240Z,5.62
2023-05-24T03:27:39.222Z,5.62
2023-05-24T03:28:39.231Z,5.62
2023-05-24T03:29:39.242Z,5.62
2023-05-24T03:30:39.192Z,5.62
2023-05-24T03:31:39.198Z,5.62
2023-05-24T03:32:39.220Z,5.62
2023-05-24T03:33:39.196Z,5.62
2023-05-24T03:34:39.164Z,5.62
2023-05-24T03:35:39.200Z,5.62
2023-05-24T03:36:39.197Z,5.62
2023-05-24T03:37:39.127Z,5.62
2023-05-24T03:38:39.116Z,5.62
2023-05-24T03:39:39.121Z,5.62
2023-05-24T03:40:39.294Z,5.62
2023-05-24T03:41:39.139Z,5.62
2023-05-24T03:42:39.072Z,5.62
2023-05-24T03:43:39.079Z,5.62
2023-05-24T03:44:39.041Z,5.62
2023-05-24T03:45:40.175Z,5.62
2023-05-24T03:46:39.042Z,5.62
2023-05-24T03:47:39.054Z,5.62
2023-05-24T03:48:39.010Z,11.25
2023-05-24T03:49:39.014Z,11.25
2023-05-24T03:50:39.008Z,11.25
2023-05-24T03:51:38.973Z,11.25
2023-05-24T03:52:38.967Z,11.25
2023-05-24T03:53:38.974Z,11.25
2023-05-24T03:54:38.948Z,11.25
2023-05-24T03:55:38.968Z,11.25
2023-05-24T03:56:38.944Z,11.25
2023-05-24T03:57:38.921Z,11.25
2023-05-24T03:58:38.909Z,11.25
2023-05-24T03:59:41.073Z,16.88
2023-05-24T04:00:38.905Z,16.88
2023-05-24T04:01:38.867Z,16.88
2023-05-24T04:02:39.027Z,16.88
2023-05-24T04:03:38.903Z,16.88
2023-05-24T04:04:38.834Z,16.88
2023-05-24T04:05:38.827Z,16.88
2023-05-24T04:06:38.814Z,16.88
2023-05-24T04:07:38.814Z,16.88
2023-05-24T04:08:38.808Z,22.50
2023-05-24T04:09:38.787Z,22.50
2023-05-24T04:10:38.772Z,28.12
2023-05-24T04:11:38.782Z,28.12
2023-05-24T04:12:38.744Z,33.75
2023-05-24T04:13:39.468Z,33.75
2023-05-24T04:14:38.728Z,33.75
2023-05-24T04:15:38.741Z,39.38
2023-05-24T04:16:38.724Z,39.38
2023-05-24T04:17:38.935Z,39.38
2023-05-24T04:18:39.985Z,39.38
2023-05-24T04:19:38.682Z,33.75
2023-05-24T04:20:38.705Z,33.75
2023-05-24T04:21:38.664Z,28.12
2023-05-24T04:22:38.643Z,28.12
2023-05-24T04:23:38.660Z,28.12
2023-05-24T04:24:39.174Z,28.12
2023-05-24T04:25:38.616Z,28.12
2023-05-24T04:26:38.604Z,28.12
2023-05-24T04:27:38.618Z,28.12
2023-05-24T04:28:38.575Z,33.75
2023-05-24T04:29:38.594Z,33.75
2023-05-24T04:30:38.587Z,39.38
2023-05-24T04:31:38.586Z,39.38
2023-05-24T04:32:38.612Z,39.38
2023-05-24T04:33:38.533Z,45.00
2023-05-24T04:34:38.810Z,45.00
2023-05-24T04:35:38.552Z,45.00
2023-05-24T04:36:38.491Z,45.00
2023-05-24T04:37:38.495Z,45.00
2023-05-24T04:38:38.470Z,39.38
2023-05-24T04:39:38.482Z,39.38
2023-05-24T04:40:38.492Z,39.38
2023-05-24T04:41:38.455Z,39.38
2023-05-24T04:42:38.484Z,45.00
2023-05-24T04:43:38.466Z,45.00
2023-05-24T04:44:38.411Z,45.00
2023-05-24T04:45:38.438Z,45.00
2023-05-24T04:46:38.457Z,45.00
2023-05-24T04:47:38.412Z,39.38
2023-05-24T04:48:38.369Z,45.00
2023-05-24T04:49:38.375Z,45.00
2023-05-24T04:50:38.396Z,45.00
2023-05-24T04:51:38.387Z,50.62
2023-05-24T04:52:38.319Z,50.62
2023-05-24T04:53:38.356Z,50.62
2023-05-24T04:54:38.334Z,56.25
2023-05-24T04:55:38.341Z,56.25
2023-05-24T04:56:38.330Z,56.25
2023-05-24T04:57:38.299Z,56.25
2023-05-24T04:58:39.409Z,56.25
2023-05-24T04:59:38.263Z,50.62
2023-05-24T05:00:38.925Z,50.62
2023-05-24T05:01:38.313Z,56.25
2023-05-24T05:02:38.336Z,56.25
2023-05-24T05:03:38.305Z,56.25
2023-05-24T05:04:38.211Z,56.25
2023-05-24T05:05:38.727Z,56.25
2023-05-24T05:06:38.218Z,56.25
2023-05-24T05:07:38.159Z,56.25
2023-05-24T05:08:38.172Z,56.25
2023-05-24T05:09:38.152Z,56.25
2023-05-24T05:10:40.000Z,56.25
2023-05-24T05:11:38.149Z,56.25
2023-05-24T05:12:38.171Z,56.25
2023-05-24T05:13:38.103Z,56.25
2023-05-24T05:14:38.101Z,56.25
2023-05-24T05:15:38.087Z,61.88
2023-05-24T05:16:38.105Z,61.88
2023-05-24T05:17:39.163Z,67.50
2023-05-24T05:18:38.058Z,67.50
2023-05-24T05:19:38.031Z,67.50
2023-05-24T05:20:38.218Z,67.50
2023-05-24T05:21:38.036Z,73.12
2023-05-24T05:22:38.084Z,78.75
2023-05-24T05:23:38.004Z,84.38
2023-05-24T05:24:37.990Z,84.38
2023-05-24T05:25:37.966Z,84.38
2023-05-24T05:26:37.976Z,78.75
2023-05-24T05:27:37.981Z,78.75
2023-05-24T05:28:37.953Z,78.75
2023-05-24T05:29:37.943Z,73.12
2023-05-24T05:30:37.940Z,73.12
2023-05-24T05:31:37.908Z,73.12
2023-05-24T05:32:38.048Z,78.75
2023-05-24T05:33:37.921Z,78.75
2023-05-24T05:34:37.910Z,84.38
2023-05-24T05:35:37.878Z,90.00
2023-05-24T05:36:37.874Z,95.62
2023-05-24T05:37:37.873Z,95.62
2023-05-24T05:38:37.854Z,101.25
2023-05-24T05:39:37.846Z,101.25
2023-05-24T05:40:37.846Z,95.62
2023-05-24T05:41:37.818Z,90.00
2023-05-24T05:42:37.816Z,95.62
2023-05-24T05:43:37.817Z,95.62
2023-05-24T05:44:37.796Z,95.62
2023-05-24T05:45:37.761Z,95.62
2023-05-24T05:46:37.779Z,95.62
2023-05-24T05:47:38.240Z,90.00
2023-05-24T05:48:37.750Z,95.62
2023-05-24T05:49:37.962Z,95.62
2023-05-24T05:50:39.455Z,95.62
2023-05-24T05:51:38.356Z,95.62
2023-05-24T05:52:37.744Z,95.62
2023-05-24T05:53:38.375Z,95.62
2023-05-24T05:54:38.486Z,95.62
2023-05-24T05:55:38.379Z,95.62
2023-05-24T05:56:37.668Z,95.62
2023-05-24T05:57:39.236Z,95.62
2023-05-24T05:58:37.648Z,101.25
2023-05-24T05:59:38.728Z,95.62
2023-05-24T06:00:37.772Z,90.00
2023-05-24T06:01:39.056Z,95.62
2023-05-24T06:02:37.937Z,95.62
2023-05-24T06:03:39.263Z,95.62
2023-05-24T06:04:39.335Z,90.00
2023-05-24T06:05:37.548Z,95.62
2023-05-24T06:06:37.586Z,95.62
2023-05-24T06:07:39.121Z,95.62
2023-05-24T06:08:38.503Z,95.62
2023-05-24T06:09:37.529Z,95.62
2023-05-24T06:10:37.583Z,95.62
2023-05-24T06:11:37.548Z,95.62
2023-05-24T06:12:37.508Z,95.62
2023-05-24T06:13:38.491Z,95.62
2023-05-24T06:14:37.481Z,90.00
2023-05-24T06:15:37.442Z,95.62
2023-05-24T06:16:37.527Z,95.62
2023-05-24T06:17:37.572Z,95.62
2023-05-24T06:18:37.433Z,95.62
2023-05-24T06:19:38.120Z,101.25
2023-05-24T06:20:37.524Z,101.25
2023-05-24T06:21:37.388Z,101.25
2023-05-24T06:22:37.404Z,101.25
2023-05-24T06:23:37.357Z,101.25
2023-05-24T06:24:37.358Z,101.25
2023-05-24T06:25:37.339Z,101.25
2023-05-24T06:26:37.399Z,101.25
2023-05-24T06:27:37.329Z,106.88
2023-05-24T06:28:37.353Z,106.88
2023-05-24T06:29:37.451Z,112.50
2023-05-24T06:30:37.404Z,123.75
2023-05-24T06:31:37.337Z,129.38
2023-05-24T06:32:37.376Z,129.38
2023-05-24T06:33:38.275Z,129.38
2023-05-24T06:34:41.292Z,123.75
2023-05-24T06:35:37.244Z,123.75
2023-05-24T06:36:37.249Z,123.75
2023-05-24T06:37:37.221Z,123.75
2023-05-24T06:38:37.233Z,129.38
2023-05-24T06:39:37.227Z,135.00
2023-05-24T06:40:37.216Z,135.00
2023-05-24T06:41:37.193Z,129.38
2023-05-24T06:42:37.181Z,129.38
2023-05-24T06:43:37.179Z,129.38
2023-05-24T06:44:37.203Z,129.38
2023-05-24T06:45:37.152Z,129.38
2023-05-24T06:46:37.162Z,123.75
2023-05-24T06:47:37.236Z,123.75
2023-05-24T06:48:37.186Z,123.75
2023-05-24T06:49:37.124Z,123.75
2023-05-24T06:50:37.522Z,123.75
2023-05-24T06:51:37.075Z,129.38
2023-05-24T06:52:37.055Z,129.38
2023-05-24T06:53:37.049Z,129.38
2023-05-24T06:54:37.062Z,135.00
2023-05-24T06:55:37.024Z,129.38
2023-05-24T06:56:37.027Z,129.38
2023-05-24T06:57:37.023Z,129.38
2023-05-24T06:58:37.032Z,129.38
2023-05-24T06:59:36.989Z,129.38
2023-05-24T07:00:36.994Z,129.38
2023-05-24T07:01:36.986Z,135.00
2023-05-24T07:02:36.982Z,135.00
2023-05-24T07:03:36.949Z,140.62
2023-05-24T07:04:37.002Z,140.62
2023-05-24T07:05:36.963Z,135.00
2023-05-24T07:06:36.932Z,135.00
2023-05-24T07:07:36.896Z,129.38
2023-05-24T07:08:36.916Z,129.38
2023-05-24T07:09:36.876Z,129.38
2023-05-24T07:10:36.899Z,129.38
2023-05-24T07:11:36.889Z,129.38
2023-05-24T07:12:36.857Z,129.38
2023-05-24T07:13:36.868Z,140.62
2023-05-24T07:14:36.832Z,140.62
2023-05-24T07:15:36.875Z,140.62
2023-05-24T07:16:36.868Z,146.25
2023-05-24T07:17:36.810Z,157.50
2023-05-24T07:18:36.821Z,168.75
2023-05-24T07:19:36.789Z,174.38
2023-05-24T07:20:36.828Z,180.00
2023-05-24T07:21:36.790Z,185.62
2023-05-24T07:22:36.760Z,185.62
2023-05-24T07:23:38.398Z,185.62
2023-05-24T07:24:36.762Z,185.62
2023-05-24T07:25:36.727Z,180.00
2023-05-24T07:26:36.761Z,180.00
2023-05-24T07:27:40.093Z,180.00
2023-05-24T07:28:36.696Z,180.00
2023-05-24T07:29:36.674Z,185.62
2023-05-24T07:30:36.657Z,191.25
2023-05-24T07:31:36.656Z,196.88
2023-05-24T07:32:36.773Z,196.88
2023-05-24T07:33:36.758Z,191.25
2023-05-24T07:34:36.623Z,185.62
2023-05-24T07:35:36.609Z,180.00
2023-05-24T07:36:36.600Z,180.00
2023-05-24T07:37:36.591Z,180.00
2023-05-24T07:38:36.631Z,180.00
2023-05-24T07:39:36.593Z,180.00
2023-05-24T07:40:36.584Z,180.00
2023-05-24T07:41:36.537Z,180.00
2023-05-24T07:42:36.534Z,174.38
2023-05-24T07:43:36.551Z,180.00
2023-05-24T07:44:36.513Z,174.38
2023-05-24T07:45:36.508Z,168.75
2023-05-24T07:46:36.558Z,168.75
2023-05-24T07:47:36.518Z,168.75
2023-05-24T07:48:36.502Z,174.38
2023-05-24T07:49:36.469Z,168.75
2023-05-24T07:50:36.472Z,168.75
2023-05-24T07:51:36.433Z,168.75
2023-05-24T07:52:36.438Z,163.12
2023-05-24T07:53:37.485Z,168.75
2023-05-24T07:54:36.414Z,174.38
2023-05-24T07:55:36.404Z,180.00
2023-05-24T07:56:36.396Z,191.25
2023-05-24T07:57:36.383Z,202.50
2023-05-24T07:58:36.411Z,208.12
2023-05-24T07:59:36.403Z,213.75
2023-05-24T08:00:36.341Z,219.38
2023-05-24T08:01:37.119Z,219.38
2023-05-24T08:02:36.376Z,219.38
2023-05-24T08:03:36.413Z,219.38
2023-05-24T08:04:36.336Z,219.38
2023-05-24T08:05:36.297Z,219.38
2023-05-24T08:06:36.335Z,213.75
2023-05-24T08:07:37.021Z,208.12
2023-05-24T08:08:36.262Z,202.50
2023-05-24T08:09:36.345Z,208.12
2023-05-24T08:10:37.794Z,208.12
2023-05-24T08:11:36.227Z,213.75
2023-05-24T08:12:37.030Z,219.38
2023-05-24T08:13:36.191Z,219.38
2023-05-24T08:14:37.770Z,225.00
2023-05-24T08:15:36.209Z,219.38
2023-05-24T08:16:36.869Z,213.75
2023-05-24T08:17:36.199Z,196.88
2023-05-24T08:18:36.848Z,185.62
2023-05-24T08:19:36.767Z,174.38
2023-05-24T08:20:36.345Z,174.38
2023-05-24T08:42:09.866Z,180.00
2023-05-24T08:43:05.988Z,174.38
2023-05-24T08:44:05.975Z,168.75
2023-05-24T08:45:05.976Z,163.12
2023-05-24T08:46:06.022Z,168.75
2023-05-24T08:47:05.976Z,174.38
2023-05-24T08:48:05.979Z,174.38
2023-05-24T08:49:06.624Z,174.38
2023-05-24T08:50:05.901Z,168.75
2023-05-24T08:51:05.911Z,180.00
2023-05-24T08:52:06.042Z,185.62
2023-05-24T08:53:05.887Z,191.25
2023-05-24T08:54:05.869Z,196.88
2023-05-24T08:55:05.906Z,196.88
2023-05-24T08:56:05.835Z,196.88
2023-05-24T08:57:05.865Z,191.25
2023-05-24T08:58:06.775Z,196.88
2023-05-24T08:59:06.361Z,202.50
2023-05-24T09:00:05.816Z,213.75
2023-05-24T09:01:07.432Z,213.75
2023-05-24T09:02:06.497Z,208.12
2023-05-24T09:03:05.914Z,213.75
2023-05-24T09:04:05.858Z,219.38
2023-05-24T09:05:05.750Z,219.38
2023-05-24T09:06:07.621Z,213.75
2023-05-24T09:07:06.372Z,213.75
2023-05-24T09:08:05.718Z,213.75
2023-05-24T09:09:05.731Z,219.38
2023-05-24T09:10:05.721Z,219.38
2023-05-24T09:11:06.377Z,219.38
2023-05-24T09:12:07.230Z,219.38
2023-05-24T09:13:05.690Z,219.38
2023-05-24T09:14:06.380Z,219.38
2023-05-24T09:15:05.683Z,219.38
2023-05-24T09:16:05.716Z,219.38
2023-05-24T09:17:05.634Z,219.38
2023-05-24T09:18:05.691Z,219.38
2023-05-24T09:19:05.615Z,219.38
2023-05-24T09:20:05.636Z,219.38
2023-05-24T09:21:05.612Z,219.38
2023-05-24T09:22:05.577Z,219.38
2023-05-24T09:23:05.580Z,219.38
2023-05-24T09:24:05.556Z,213.75
2023-05-24T09:25:05.602Z,191.25
2023-05-24T09:26:06.360Z,168.75
2023-05-24T09:27:05.519Z,163.12
2023-05-24T09:28:05.513Z,163.12
2023-05-24T09:29:05.493Z,168.75
2023-05-24T09:30:05.586Z,174.38
2023-05-24T09:31:07.828Z,180.00
2023-05-24T09:32:05.528Z,180.00
2023-05-24T09:33:05.574Z,185.62
2023-05-24T09:34:05.439Z,185.62
2023-05-24T09:35:05.558Z,185.62
2023-05-24T09:36:05.422Z,185.62
2023-05-24T09:37:05.468Z,180.00
2023-05-24T09:38:05.427Z,168.75
2023-05-24T09:39:05.406Z,157.50
2023-05-24T09:40:05.402Z,146.25
2023-05-24T09:41:05.412Z,129.38
2023-05-24T09:42:05.352Z,129.38
2023-05-24T09:43:05.364Z,129.38
2023-05-24T09:44:05.344Z,129.38
2023-05-24T09:45:05.371Z,123.75
2023-05-24T09:46:05.311Z,123.75
2023-05-24T09:47:05.389Z,123.75
2023-05-24T09:48:05.374Z,129.38
2023-05-24T09:49:05.305Z,135.00
2023-05-24T09:50:05.308Z,151.88
2023-05-24T09:51:05.310Z,174.38
2023-05-24T09:52:05.277Z,196.88
2023-05-24T09:53:05.252Z,213.75
2023-05-24T09:54:05.299Z,219.38
2023-05-24T09:55:05.261Z,230.62
2023-05-24T09:56:05.243Z,225.00
2023-05-24T09:57:05.284Z,230.62
2023-05-24T09:58:05.233Z,241.88
2023-05-24T09:59:05.209Z,264.38
2023-05-24T10:00:05.178Z,264.38
2023-05-24T10:01:05.252Z,264.38
2023-05-24T10:02:05.149Z,270.00
2023-05-24T10:03:05.192Z,275.62
2023-05-24T10:04:07.885Z,281.25
2023-05-24T10:05:05.792Z,292.50
2023-05-24T10:06:06.768Z,298.12
2023-05-24T10:07:07.036Z,298.12
2023-05-24T10:08:05.092Z,292.50
2023-05-24T10:09:05.090Z,292.50
2023-05-24T10:10:07.484Z,298.12
2023-05-24T10:11:05.106Z,303.75
2023-05-24T10:12:05.049Z,303.75
2023-05-24T10:13:05.796Z,270.00
2023-05-24T10:14:05.697Z,247.50
2023-05-24T10:15:05.740Z,241.88
2023-05-24T10:16:05.038Z,258.75
2023-05-24T10:17:05.093Z,309.38
2023-05-24T10:18:05.741Z,337.50
2023-05-24T10:19:05.001Z,343.12
2023-05-24T10:20:04.994Z,354.38
2023-05-24T10:21:05.042Z,393.75
2023-05-24T10:22:04.958Z,438.75
2023-05-24T10:23:04.979Z,427.50
2023-05-24T10:24:05.394Z,421.88
2023-05-24T10:25:04.922Z,416.25
2023-05-24T10:26:04.915Z,393.75
2023-05-24T10:27:04.930Z,388.12
2023-05-24T10:28:04.938Z,360.00
2023-05-24T10:29:04.882Z,315.00
2023-05-24T10:30:06.094Z,275.62
2023-05-24T10:31:05.039Z,241.88
2023-05-24T10:32:06.355Z,225.00
2023-05-24T10:33:04.906Z,219.38
2023-05-24T10:34:08.491Z,208.12
2023-05-24T10:35:05.508Z,208.12
2023-05-24T10:36:06.041Z,208.12
2023-05-24T10:37:06.481Z,208.12
2023-05-24T10:38:04.813Z,208.12
2023-05-24T10:39:08.340Z,202.50
2023-05-24T10:40:04.766Z,196.88
2023-05-24T10:41:04.774Z,196.88
2023-05-24T10:42:06.126Z,191.25
2023-05-24T10:43:05.331Z,180.00
2023-05-24T10:44:09.181Z,163.12
2023-05-24T10:45:04.742Z,146.25
2023-05-24T10:46:04.811Z,129.38
2023-05-24T10:47:04.707Z,123.75
2023-05-24T10:48:05.418Z,118.12
2023-05-24T10:49:07.675Z,112.50
2023-05-24T10:50:06.291Z,106.88
2023-05-24T10:51:05.082Z,106.88
2023-05-24T10:52:05.847Z,106.88
2023-05-24T10:53:04.662Z,112.50
2023-05-24T10:54:07.512Z,118.12
2023-05-24T10:55:05.394Z,123.75
2023-05-24T10:56:05.808Z,135.00
2023-05-24T10:57:04.665Z,140.62
2023-05-24T10:58:04.728Z,146.25
2023-05-24T10:59:04.704Z,151.88
2023-05-24T11:00:07.809Z,157.50
2023-05-24T11:01:04.597Z,163.12
2023-05-24T11:02:04.671Z,174.38
2023-05-24T11:03:04.746Z,185.62
2023-05-24T11:04:08.898Z,196.88
2023-05-24T11:05:04.738Z,202.50
2023-05-24T11:06:04.576Z,213.75
2023-05-24T11:07:06.533Z,219.38
2023-05-24T11:08:04.480Z,230.62
2023-05-24T11:09:05.120Z,247.50
2023-05-24T11:10:04.461Z,258.75
2023-05-24T11:11:19.226Z,270.00
2023-05-24T11:12:04.447Z,281.25
2023-05-24T11:13:04.411Z,286.88
2023-05-24T11:14:04.411Z,303.75
2023-05-24T11:15:04.394Z,315.00
2023-05-24T11:18:25.369Z,343.12
2023-05-24T11:19:26.138Z,343.12
2023-05-24T11:20:26.390Z,343.12
2023-05-24T11:21:26.164Z,343.12
2023-05-24T11:22:26.147Z,343.12
2023-05-24T11:23:26.120Z,343.12
2023-05-24T11:24:26.216Z,331.88
2023-05-24T11:25:26.092Z,320.62
2023-05-24T11:26:26.084Z,309.38
2023-05-24T11:27:26.125Z,281.25
2023-05-24T11:28:26.132Z,264.38
2023-05-24T11:29:26.818Z,275.62
2023-05-24T11:30:26.090Z,298.12
2023-05-24T11:31:26.083Z,315.00
2023-05-24T11:32:26.126Z,298.12
2023-05-24T11:33:26.006Z,275.62
2023-05-24T11:34:26.062Z,258.75
2023-05-24T11:35:25.980Z,253.12
2023-05-24T11:36:26.002Z,236.25
2023-05-24T11:37:38.570Z,219.38
2023-05-24T11:38:25.976Z,202.50
2023-05-24T11:39:25.947Z,191.25
2023-05-24T11:40:25.957Z,191.25
2023-05-24T11:41:25.937Z,191.25
2023-05-24T11:42:25.981Z,191.25
2023-05-24T11:43:25.921Z,191.25
2023-05-24T11:44:25.911Z,196.88
2023-05-24T11:45:25.875Z,202.50
2023-05-24T11:46:25.974Z,208.12
2023-05-24T11:47:25.944Z,213.75
2023-05-24T11:48:25.873Z,213.75
2023-05-24T11:49:25.851Z,213.75
2023-05-24T11:50:26.968Z,213.75
2023-05-24T11:51:25.818Z,213.75
2023-05-24T11:52:25.867Z,219.38
2023-05-24T11:53:25.811Z,230.62
2023-05-24T11:54:25.789Z,236.25
2023-05-24T11:55:25.781Z,236.25
2023-05-24T11:56:25.772Z,241.88
2023-05-24T11:57:25.785Z,253.12
2023-05-24T11:58:25.775Z,270.00
2023-05-24T11:59:25.742Z,281.25
2023-05-24T12:00:25.774Z,281.25
2023-05-24T12:01:25.753Z,270.00
2023-05-24T12:02:25.852Z,270.00
2023-05-24T12:03:25.828Z,281.25
2023-05-24T12:04:25.846Z,298.12
2023-05-24T12:05:25.670Z,315.00
2023-05-24T12:06:25.674Z,331.88
2023-05-24T12:07:25.644Z,337.50
2023-05-24T12:08:25.735Z,331.88
2023-05-24T12:09:25.673Z,331.88
2023-05-24T12:10:25.628Z,331.88
2023-05-24T12:11:25.609Z,331.88
2023-05-24T12:12:33.781Z,331.88
2023-05-24T12:13:25.611Z,331.88
2023-05-24T12:14:25.633Z,331.88
2023-05-24T12:15:25.573Z,331.88
2023-05-24T12:16:25.624Z,331.88
2023-05-24T12:17:25.580Z,337.50
2023-05-24T12:18:25.577Z,331.88
2023-05-24T12:19:33.023Z,326.25
2023-05-24T12:20:25.576Z,326.25
2023-05-24T12:21:25.522Z,326.25
2023-05-24T12:22:25.509Z,337.50
2023-05-24T12:23:25.507Z,343.12
2023-05-24T12:24:25.524Z,343.12
2023-05-24T12:25:25.469Z,348.75
2023-05-24T12:26:25.465Z,348.75
2023-05-24T12:27:25.446Z,348.75
2023-05-24T12:28:25.442Z,348.75
2023-05-24T12:29:25.416Z,354.38
2023-05-24T12:30:25.988Z,376.88
2023-05-24T12:31:25.431Z,360.00
2023-05-24T12:32:25.950Z,354.38
2023-05-24T12:33:25.378Z,343.12
2023-05-24T12:34:25.411Z,331.88
2023-05-24T12:35:25.393Z,315.00
2023-05-24T12:36:25.363Z,286.88
2023-05-24T12:37:25.385Z,264.38
2023-05-24T12:38:25.539Z,241.88
2023-05-24T12:39:25.329Z,225.00
2023-05-24T12:40:25.325Z,225.00
2023-05-24T12:41:25.292Z,219.38
2023-05-24T12:42:25.325Z,213.75
2023-05-24T12:43:25.289Z,208.12
2023-05-24T12:44:25.312Z,208.12
2023-05-24T12:45:25.247Z,202.50
2023-05-24T12:46:25.271Z,202.50
2023-05-24T12:47:25.514Z,202.50
2023-05-24T12:48:25.256Z,202.50
2023-05-24T12:49:25.226Z,202.50
2023-05-24T12:50:25.225Z,196.88
2023-05-24T12:51:25.200Z,196.88
2023-05-24T12:52:25.225Z,191.25
2023-05-24T12:53:25.161Z,180.00
2023-05-24T12:54:25.219Z,168.75
2023-05-24T12:55:25.198Z,157.50
2023-05-24T12:56:25.157Z,151.88
2023-05-24T12:57:25.128Z,151.88
2023-05-24T12:58:25.130Z,157.50
2023-05-24T12:59:25.146Z,151.88
2023-05-24T13:00:25.116Z,157.50
2023-05-24T13:01:25.127Z,168.75
2023-05-24T13:02:25.128Z,168.75
2023-05-24T13:03:25.073Z,168.75
2023-05-24T13:04:25.101Z,168.75
2023-05-24T13:05:25.132Z,168.75
2023-05-24T13:06:25.053Z,168.75
2023-05-24T13:07:25.030Z,168.75
2023-05-24T13:08:25.033Z,174.38
2023-05-24T13:09:25.021Z,180.00
2023-05-24T13:10:25.023Z,185.62